createdAt,value
2017-08-01T00:01:23.571Z,21.50
2017-08-01T00:03:52.587Z,21.40
2017-08-01T00:06:20.851Z,21.30
2017-08-01T00:08:49.088Z,21.30
2017-08-01T00:11:17.327Z,21.20
2017-08-01T00:13:45.544Z,21.10
2017-08-01T00:16:13.788Z,21.00
2017-08-01T00:18:42.013Z,20.90
2017-08-01T00:21:11.020Z,20.90
2017-08-01T00:23:40.006Z,20.80
2017-08-01T00:26:09.037Z,20.60
2017-08-01T00:28:37.259Z,20.60
2017-08-01T00:31:05.480Z,20.40
2017-08-01T00:33:33.739Z,20.40
2017-08-01T00:36:01.955Z,20.40
2017-08-01T00:38:30.170Z,20.40
2017-08-01T00:40:59.172Z,20.30
2017-08-01T00:43:27.403Z,20.30
2017-08-01T00:45:55.647Z,20.30
2017-08-01T00:48:23.874Z,20.40
2017-08-01T00:50:52.115Z,20.40
2017-08-01T00:53:20.372Z,20.50
2017-08-01T00:55:48.594Z,20.50
2017-08-01T00:58:16.806Z,20.50
2017-08-01T01:00:45.063Z,20.40
2017-08-01T01:03:13.298Z,20.40
2017-08-01T01:05:41.519Z,20.30
2017-08-01T01:08:09.776Z,20.20
2017-08-01T01:10:38.888Z,20.20
2017-08-01T01:13:07.911Z,20.20
2017-08-01T01:15:36.136Z,20.20
2017-08-01T01:18:04.355Z,20.30
2017-08-01T01:20:32.623Z,20.30
2017-08-01T01:23:00.932Z,20.40
2017-08-01T01:25:29.200Z,20.40
2017-08-01T01:27:57.479Z,20.40
2017-08-01T01:30:25.780Z,20.40
2017-08-01T01:32:54.047Z,20.40
2017-08-01T01:35:22.350Z,20.40
2017-08-01T01:37:50.643Z,20.30
2017-08-01T01:40:18.915Z,20.20
2017-08-01T01:42:47.216Z,20.20
2017-08-01T01:45:15.495Z,20.10
2017-08-01T01:47:43.806Z,19.90
2017-08-01T01:50:12.853Z,19.90
2017-08-01T01:52:41.125Z,19.90
2017-08-01T01:55:09.671Z,19.80
2017-08-01T01:57:38.699Z,19.70
2017-08-01T02:00:07.002Z,19.70
2017-08-01T02:02:35.286Z,19.80
2017-08-01T02:05:03.554Z,19.70
2017-08-01T02:07:31.840Z,19.60
2017-08-01T02:10:00.135Z,19.40
2017-08-01T02:12:29.207Z,19.30
2017-08-01T02:14:57.484Z,19.40
2017-08-01T02:17:25.777Z,19.50
2017-08-01T02:19:54.832Z,19.50
2017-08-01T02:22:23.123Z,19.50
2017-08-01T02:24:51.399Z,19.30
2017-08-01T02:27:19.692Z,19.30
2017-08-01T02:29:47.975Z,19.40
2017-08-01T02:32:17.017Z,19.30
2017-08-01T02:34:45.302Z,19.30
2017-08-01T02:37:13.586Z,19.40
2017-08-01T02:39:41.863Z,19.40
2017-08-01T02:42:10.126Z,19.50
2017-08-01T02:44:38.400Z,19.40
2017-08-01T02:47:06.669Z,19.50
2017-08-01T02:49:34.946Z,19.50
2017-08-01T02:52:03.209Z,19.40
2017-08-01T02:54:31.511Z,19.30
2017-08-01T02:56:59.771Z,19.40
2017-08-01T02:59:28.026Z,19.40
2017-08-01T03:01:56.332Z,19.40
2017-08-01T03:04:24.601Z,19.20
2017-08-01T03:06:52.910Z,19.00
2017-08-01T03:09:21.175Z,19.00
2017-08-01T03:11:49.439Z,19.10
2017-08-01T03:14:17.748Z,19.10
2017-08-01T03:16:46.017Z,19.10
2017-08-01T03:19:14.274Z,19.10
2017-08-01T03:21:42.598Z,19.00
2017-08-01T03:24:10.867Z,19.00
2017-08-01T03:26:39.891Z,19.00
2017-08-01T03:29:08.197Z,19.00
2017-08-01T03:31:36.452Z,18.90
2017-08-01T03:34:04.723Z,18.90
2017-08-01T03:36:33.016Z,18.90
2017-08-01T03:39:01.301Z,18.90
2017-08-01T03:41:29.554Z,19.00
2017-08-01T03:43:57.840Z,19.10
2017-08-01T03:46:26.135Z,19.10
2017-08-01T03:48:54.394Z,19.20
2017-08-01T03:51:22.684Z,19.30
2017-08-01T03:53:50.943Z,19.30
2017-08-01T03:56:19.232Z,19.40
2017-08-01T03:58:47.495Z,19.40
2017-08-01T04:01:15.787Z,19.40
2017-08-01T04:03:44.047Z,19.40
2017-08-01T04:06:12.336Z,19.30
2017-08-01T04:08:40.631Z,19.30
2017-08-01T04:11:09.673Z,19.00
2017-08-01T04:13:37.976Z,19.00
2017-08-01T04:16:06.284Z,19.00
2017-08-01T04:18:35.311Z,18.70
2017-08-01T04:21:03.571Z,18.60
2017-08-01T04:23:31.855Z,18.60
2017-08-01T04:26:00.119Z,18.60
2017-08-01T04:28:28.437Z,18.50
2017-08-01T04:30:56.743Z,18.50
2017-08-01T04:33:25.007Z,18.60
2017-08-01T04:35:53.312Z,18.50
2017-08-01T04:38:22.354Z,18.70
2017-08-01T04:40:50.627Z,18.60
2017-08-01T04:43:18.919Z,18.50
2017-08-01T04:45:47.198Z,18.50
2017-08-01T04:48:16.296Z,18.50
2017-08-01T04:50:45.365Z,18.50
2017-08-01T04:53:13.655Z,18.50
2017-08-01T04:55:41.979Z,18.60
2017-08-01T04:58:10.256Z,18.60
2017-08-01T05:00:38.523Z,18.60
2017-08-01T05:03:06.843Z,18.70
2017-08-01T05:05:35.121Z,18.90
2017-08-01T05:08:03.443Z,18.90
2017-08-01T05:10:32.491Z,18.90
2017-08-01T05:13:00.770Z,18.80
2017-08-01T05:15:29.083Z,19.00
2017-08-01T05:17:57.359Z,19.20
2017-08-01T05:20:25.637Z,19.10
2017-08-01T05:22:54.712Z,19.00
2017-08-01T05:25:23.067Z,19.00
2017-08-01T05:27:51.353Z,19.10
2017-08-01T05:30:19.627Z,19.20
2017-08-01T05:32:47.933Z,19.30
2017-08-01T05:35:17.031Z,19.40
2017-08-01T05:37:46.089Z,19.30
2017-08-01T05:40:14.360Z,19.30
2017-08-01T05:42:42.658Z,19.30
2017-08-01T05:45:10.936Z,19.30
2017-08-01T05:47:39.227Z,19.30
2017-08-01T05:50:08.276Z,19.50
2017-08-01T05:52:36.587Z,19.50
2017-08-01T05:55:05.633Z,19.70
2017-08-01T05:57:33.919Z,19.70
2017-08-01T06:00:02.215Z,19.80
2017-08-01T06:02:30.516Z,20.10
2017-08-01T06:04:59.579Z,20.80
2017-08-01T06:07:27.885Z,20.70
2017-08-01T06:09:56.160Z,21.00
2017-08-01T06:12:24.482Z,21.10
2017-08-01T06:14:52.767Z,21.30
2017-08-01T06:17:21.043Z,21.60
2017-08-01T06:19:49.350Z,21.80
2017-08-01T06:22:17.663Z,21.80
2017-08-01T06:24:45.940Z,21.90
2017-08-01T06:27:14.233Z,21.80
2017-08-01T06:29:42.538Z,22.00
2017-08-01T06:32:10.804Z,22.20
2017-08-01T06:34:39.076Z,22.40
2017-08-01T06:37:07.371Z,22.50
2017-08-01T06:39:35.656Z,22.70
2017-08-01T06:42:03.923Z,22.90
2017-08-01T06:44:32.212Z,22.90
2017-08-01T06:47:00.529Z,23.10
2017-08-01T06:49:28.792Z,23.20
2017-08-01T06:51:57.062Z,23.60
2017-08-01T06:54:25.383Z,24.00
2017-08-01T06:56:53.652Z,24.20
2017-08-01T06:59:21.947Z,24.50
2017-08-01T07:01:50.231Z,24.30
2017-08-01T07:04:18.758Z,24.50
2017-08-01T07:06:47.058Z,24.90
2017-08-01T07:09:15.356Z,25.10
2017-08-01T07:11:44.801Z,25.40
2017-08-01T07:14:13.055Z,25.50
2017-08-01T07:16:41.360Z,25.80
2017-08-01T07:19:09.638Z,26.20
2017-08-01T07:21:37.903Z,26.30
2017-08-01T07:24:06.167Z,26.60
2017-08-01T07:26:34.799Z,26.80
2017-08-01T07:29:03.091Z,27.30
2017-08-01T07:31:31.627Z,27.30
2017-08-01T07:34:00.661Z,28.00
2017-08-01T07:36:28.955Z,28.00
2017-08-01T07:38:57.223Z,28.30
2017-08-01T07:41:25.503Z,28.60
2017-08-01T07:43:53.812Z,29.00
2017-08-01T07:46:22.863Z,29.50
2017-08-01T07:48:51.160Z,29.40
2017-08-01T07:51:19.431Z,29.50
2017-08-01T07:53:47.703Z,30.00
2017-08-01T07:56:16.046Z,30.50
2017-08-01T07:58:44.315Z,30.80
2017-08-01T08:01:12.580Z,31.00
2017-08-01T08:03:40.888Z,31.20
2017-08-01T08:06:09.148Z,31.60
2017-08-01T08:08:37.415Z,31.80
2017-08-01T08:11:05.711Z,31.90
2017-08-01T08:13:33.980Z,32.30
2017-08-01T08:16:02.315Z,32.50
2017-08-01T08:18:31.375Z,32.20
2017-08-01T08:20:59.639Z,32.20
2017-08-01T08:23:27.899Z,32.10
2017-08-01T08:25:56.183Z,32.00
2017-08-01T08:28:24.467Z,32.40
2017-08-01T08:30:52.757Z,32.60
2017-08-01T08:33:21.015Z,32.10
2017-08-01T08:35:49.311Z,31.90
2017-08-01T08:38:17.572Z,31.50
2017-08-01T08:40:45.840Z,31.30
2017-08-01T08:43:14.124Z,30.90
2017-08-01T08:45:42.411Z,31.30
2017-08-01T08:48:10.672Z,32.10
2017-08-01T08:50:38.932Z,32.50
2017-08-01T08:53:07.216Z,33.30
2017-08-01T08:55:35.507Z,33.90
2017-08-01T08:58:03.771Z,34.50
2017-08-01T09:00:32.036Z,34.90
2017-08-01T09:03:00.352Z,35.30
2017-08-01T09:05:28.636Z,35.00
2017-08-01T09:07:56.895Z,34.80
2017-08-01T09:10:25.182Z,35.10
2017-08-01T09:12:53.442Z,35.50
2017-08-01T09:15:21.732Z,35.60
2017-08-01T09:17:49.991Z,35.40
2017-08-01T09:20:18.279Z,35.40
2017-08-01T09:22:46.563Z,36.00
2017-08-01T09:25:14.840Z,36.20
2017-08-01T09:27:43.127Z,36.50
2017-08-01T09:30:12.180Z,36.60
2017-08-01T09:32:40.439Z,36.60
2017-08-01T09:35:08.723Z,36.90
2017-08-01T09:37:36.995Z,37.10
2017-08-01T09:40:05.306Z,36.50
2017-08-01T09:42:33.567Z,36.90
2017-08-01T09:45:01.839Z,37.60
2017-08-01T09:47:30.148Z,37.60
2017-08-01T09:49:58.414Z,38.00
2017-08-01T09:52:26.724Z,38.20
2017-08-01T09:54:54.999Z,38.20
2017-08-01T09:57:23.262Z,38.50
2017-08-01T09:59:52.323Z,37.20
2017-08-01T10:02:20.585Z,37.10
2017-08-01T10:04:48.873Z,37.70
2017-08-01T10:07:17.147Z,38.40
2017-08-01T10:09:45.436Z,38.40
2017-08-01T10:12:13.724Z,38.10
2017-08-01T10:14:42.011Z,37.60
2017-08-01T10:17:11.035Z,37.60
2017-08-01T10:19:39.332Z,37.50
2017-08-01T10:22:07.592Z,38.30
2017-08-01T10:24:35.855Z,38.90
2017-08-01T10:27:04.139Z,39.50
2017-08-01T10:29:32.396Z,39.70
2017-08-01T10:32:00.692Z,39.80
2017-08-01T10:34:28.955Z,39.90
2017-08-01T10:36:57.220Z,39.50
2017-08-01T10:39:25.511Z,39.60
2017-08-01T10:41:53.829Z,39.70
2017-08-01T10:44:22.115Z,39.70
2017-08-01T10:46:50.391Z,39.60
2017-08-01T10:49:18.659Z,39.30
2017-08-01T10:51:46.965Z,39.20
2017-08-01T10:54:15.987Z,39.70
2017-08-01T10:56:44.249Z,39.70
2017-08-01T10:59:12.535Z,38.40
2017-08-01T11:01:40.885Z,37.80
2017-08-01T11:04:09.916Z,37.20
2017-08-01T11:06:38.207Z,37.10
2017-08-01T11:09:06.491Z,35.90
2017-08-01T11:11:34.751Z,35.20
2017-08-01T11:14:03.015Z,35.90
2017-08-01T11:16:31.303Z,36.30
2017-08-01T11:18:59.568Z,36.60
2017-08-01T11:21:27.857Z,36.70
2017-08-01T11:23:56.131Z,36.60
2017-08-01T11:26:24.427Z,36.70
2017-08-01T11:28:52.696Z,36.70
2017-08-01T11:31:20.959Z,36.60
2017-08-01T11:33:49.243Z,36.50
2017-08-01T11:36:17.506Z,36.40
2017-08-01T11:38:45.791Z,36.40
2017-08-01T11:41:14.364Z,36.50
2017-08-01T11:43:42.628Z,36.40
2017-08-01T11:46:10.894Z,36.10
2017-08-01T11:48:39.175Z,36.00
2017-08-01T11:51:07.452Z,35.70
2017-08-01T11:53:35.730Z,35.70
2017-08-01T11:56:04.027Z,35.20
2017-08-01T11:58:32.332Z,35.20
2017-08-01T12:01:00.595Z,35.30
2017-08-01T12:03:28.855Z,35.20
2017-08-01T12:05:57.137Z,35.00
2017-08-01T12:08:25.417Z,34.90
2017-08-01T12:10:53.698Z,34.70
2017-08-01T12:13:21.968Z,34.60
2017-08-01T12:15:50.256Z,34.70
2017-08-01T12:18:18.523Z,34.50
2017-08-01T12:20:46.780Z,34.20
2017-08-01T12:23:13.738Z,34.20
2017-08-01T12:25:40.071Z,34.30
2017-08-01T12:28:06.411Z,34.30
2017-08-01T12:30:32.704Z,34.30
2017-08-01T12:32:59.039Z,34.20
2017-08-01T12:35:26.075Z,34.40
2017-08-01T12:37:52.378Z,34.30
2017-08-01T12:40:18.769Z,34.30
2017-08-01T12:42:45.076Z,34.10
2017-08-01T12:45:12.111Z,33.90
2017-08-01T12:47:38.442Z,33.90
2017-08-01T12:50:04.784Z,33.60
2017-08-01T12:52:31.820Z,33.30
2017-08-01T12:54:58.150Z,33.30
2017-08-01T12:57:25.247Z,32.80
2017-08-01T12:59:51.552Z,32.80
2017-08-01T13:02:17.855Z,32.70
2017-08-01T13:04:44.168Z,32.50
2017-08-01T13:07:10.507Z,32.60
2017-08-01T13:09:36.821Z,32.50
2017-08-01T13:12:03.107Z,32.60
2017-08-01T13:14:29.440Z,32.50
2017-08-01T13:16:55.732Z,32.20
2017-08-01T13:19:22.323Z,32.40
2017-08-01T13:21:48.662Z,32.40
2017-08-01T13:24:14.959Z,32.40
2017-08-01T13:26:41.299Z,32.50
2017-08-01T13:29:07.644Z,32.40
2017-08-01T13:31:33.971Z,32.30
2017-08-01T13:34:00.264Z,32.20
2017-08-01T13:36:26.582Z,32.10
2017-08-01T13:38:53.624Z,31.90
2017-08-01T13:41:19.960Z,31.90
2017-08-01T13:43:47.025Z,32.00
2017-08-01T13:46:13.340Z,32.00
2017-08-01T13:48:40.404Z,32.00
2017-08-01T13:51:06.760Z,32.00
2017-08-01T13:53:33.071Z,31.80
2017-08-01T13:55:59.381Z,31.80
2017-08-01T13:58:25.727Z,32.00
2017-08-01T14:00:52.059Z,32.10
2017-08-01T14:03:18.416Z,31.80
2017-08-01T14:05:44.792Z,31.70
2017-08-01T14:08:11.856Z,31.70
2017-08-01T14:10:38.240Z,31.70
2017-08-01T14:13:04.584Z,31.70
2017-08-01T14:15:30.899Z,31.60
2017-08-01T14:17:57.231Z,31.30
2017-08-01T14:20:23.536Z,31.10
2017-08-01T14:22:49.893Z,30.70
2017-08-01T14:25:16.227Z,30.70
2017-08-01T14:27:43.629Z,30.80
2017-08-01T14:30:09.975Z,30.70
2017-08-01T14:32:36.294Z,30.70
2017-08-01T14:35:02.603Z,30.70
2017-08-01T14:37:29.664Z,30.50
2017-08-01T14:39:55.973Z,30.50
2017-08-01T14:42:22.335Z,30.80
2017-08-01T14:44:48.628Z,30.70
2017-08-01T14:47:15.012Z,30.70
2017-08-01T14:49:41.316Z,30.80
2017-08-01T14:52:07.628Z,30.90
2017-08-01T14:54:34.696Z,30.70
2017-08-01T14:57:01.031Z,30.70
2017-08-01T14:59:27.367Z,30.90
2017-08-01T15:01:53.680Z,31.00
2017-08-01T15:04:20.023Z,30.80
2017-08-01T15:06:46.351Z,30.70
2017-08-01T15:09:12.745Z,30.70
2017-08-01T15:11:39.395Z,30.70
2017-08-01T15:14:06.439Z,30.60
2017-08-01T15:16:33.487Z,30.40
2017-08-01T15:19:00.551Z,30.40
2017-08-01T15:21:26.860Z,30.30
2017-08-01T15:23:53.163Z,30.20
2017-08-01T15:26:19.500Z,30.10
2017-08-01T15:28:45.800Z,29.90
2017-08-01T15:31:12.128Z,29.70
2017-08-01T15:33:38.435Z,29.80
2017-08-01T15:36:04.771Z,29.70
2017-08-01T15:38:31.083Z,29.60
2017-08-01T15:40:57.427Z,29.50
2017-08-01T15:43:23.756Z,29.40
2017-08-01T15:45:50.083Z,29.40
2017-08-01T15:48:16.412Z,29.10
2017-08-01T15:50:42.728Z,28.80
2017-08-01T15:53:09.055Z,28.80
2017-08-01T15:55:36.160Z,28.60
2017-08-01T15:58:02.485Z,28.60
2017-08-01T16:00:28.849Z,28.60
2017-08-01T16:02:55.212Z,28.40
2017-08-01T16:05:21.503Z,28.10
2017-08-01T16:07:47.823Z,27.70
2017-08-01T16:10:14.168Z,27.60
2017-08-01T16:12:40.460Z,27.50
2017-08-01T16:15:06.758Z,27.60
2017-08-01T16:17:33.128Z,27.60
2017-08-01T16:19:59.468Z,27.40
2017-08-01T16:22:25.859Z,27.40
2017-08-01T16:24:52.169Z,27.50
2017-08-01T16:27:18.515Z,27.60
2017-08-01T16:29:44.845Z,27.40
2017-08-01T16:32:11.160Z,26.80
2017-08-01T16:34:37.508Z,26.50
2017-08-01T16:37:03.804Z,26.10
2017-08-01T16:39:30.864Z,26.00
2017-08-01T16:41:57.215Z,26.00
2017-08-01T16:44:23.523Z,26.00
2017-08-01T16:46:50.555Z,25.20
2017-08-01T16:49:17.707Z,25.40
2017-08-01T16:51:44.183Z,25.30
2017-08-01T16:54:10.543Z,25.40
2017-08-01T16:56:36.838Z,25.50
2017-08-01T16:59:03.216Z,25.50
2017-08-01T17:01:29.515Z,25.40
2017-08-01T17:03:55.805Z,25.20
2017-08-01T17:06:22.096Z,25.20
2017-08-01T17:08:48.435Z,25.30
2017-08-01T17:11:14.756Z,25.20
2017-08-01T17:13:41.065Z,25.00
2017-08-01T17:16:07.380Z,24.90
2017-08-01T17:18:33.700Z,25.00
2017-08-01T17:20:59.999Z,25.30
2017-08-01T17:23:27.048Z,25.40
2017-08-01T17:25:54.123Z,25.40
2017-08-01T17:28:20.507Z,25.40
2017-08-01T17:30:46.812Z,25.00
2017-08-01T17:33:13.179Z,24.60
2017-08-01T17:35:40.228Z,24.90
2017-08-01T17:38:07.273Z,25.00
2017-08-01T17:40:33.615Z,24.90
2017-08-01T17:42:59.937Z,24.70
2017-08-01T17:45:27.059Z,24.00
2017-08-01T17:47:53.438Z,23.90
2017-08-01T17:50:19.803Z,23.60
2017-08-01T17:52:46.129Z,23.60
2017-08-01T17:55:12.457Z,23.80
2017-08-01T17:57:38.852Z,23.40
2017-08-01T18:00:05.476Z,23.50
2017-08-01T18:02:31.821Z,23.40
2017-08-01T18:04:58.208Z,23.20
2017-08-01T18:07:24.559Z,23.10
2017-08-01T18:09:51.712Z,23.30
2017-08-01T18:12:18.762Z,23.20
2017-08-01T18:14:45.094Z,23.20
2017-08-01T18:17:12.135Z,23.70
2017-08-01T18:19:38.447Z,23.70
2017-08-01T18:22:04.805Z,23.70
2017-08-01T18:24:31.143Z,23.50
2017-08-01T18:26:57.468Z,23.70
2017-08-01T18:29:23.814Z,23.80
2017-08-01T18:31:50.140Z,24.00
2017-08-01T18:34:16.492Z,23.60
2017-08-01T18:36:42.796Z,23.40
2017-08-01T18:39:09.314Z,23.20
2017-08-01T18:41:35.802Z,23.00
2017-08-01T18:44:02.149Z,23.00
2017-08-01T18:46:29.268Z,23.40
2017-08-01T18:48:55.671Z,23.30
2017-08-01T18:51:22.220Z,23.60
2017-08-01T18:53:48.833Z,23.60
2017-08-01T18:56:15.216Z,23.40
2017-08-01T18:58:41.545Z,23.50
2017-08-01T19:01:07.861Z,23.60
2017-08-01T19:03:34.486Z,23.50
2017-08-01T19:06:00.860Z,23.50
2017-08-01T19:08:27.180Z,23.60
2017-08-01T19:10:53.477Z,23.60
2017-08-01T19:13:20.068Z,23.40
2017-08-01T19:15:46.727Z,23.10
2017-08-01T19:18:13.410Z,22.90
2017-08-01T19:20:40.510Z,22.00
2017-08-01T19:23:07.880Z,21.60
2017-08-01T19:25:34.454Z,21.60
2017-08-01T19:28:01.104Z,21.40
2017-08-01T19:30:27.517Z,21.20
2017-08-01T19:32:54.108Z,21.00
2017-08-01T19:35:20.767Z,20.80
2017-08-01T19:37:47.138Z,19.30
2017-08-01T19:40:14.073Z,19.00
2017-08-01T19:42:40.487Z,19.00
2017-08-01T19:45:06.800Z,18.40
2017-08-01T19:47:33.159Z,18.00
2017-08-01T19:49:59.505Z,18.10
2017-08-01T19:52:26.117Z,18.10
2017-08-01T19:54:52.522Z,18.20
2017-08-01T19:57:19.116Z,18.50
2017-08-01T19:59:46.363Z,18.50
2017-08-01T20:02:12.984Z,18.70
2017-08-01T20:04:40.078Z,19.10
2017-08-01T20:07:06.685Z,19.10
2017-08-01T20:09:33.472Z,19.50
2017-08-01T20:12:00.163Z,19.40
2017-08-01T20:14:26.848Z,19.30
2017-08-01T20:16:53.232Z,19.50
2017-08-01T20:19:20.497Z,19.70
2017-08-01T20:21:46.855Z,19.90
2017-08-01T20:24:13.168Z,20.00
2017-08-01T20:26:40.417Z,20.20
2017-08-01T20:29:06.772Z,20.30
2017-08-01T20:31:33.124Z,20.40
2017-08-01T20:33:59.444Z,20.40
2017-08-01T20:36:25.756Z,20.50
2017-08-01T20:38:52.092Z,20.50
2017-08-01T20:41:18.411Z,20.30
2017-08-01T20:43:45.483Z,20.00
2017-08-01T20:46:11.779Z,20.00
2017-08-01T20:48:38.911Z,19.60
2017-08-01T20:51:05.236Z,19.60
2017-08-01T20:53:31.545Z,19.30
2017-08-01T20:55:57.896Z,19.00
2017-08-01T20:58:24.208Z,18.90
2017-08-01T21:00:50.507Z,18.90
2017-08-01T21:03:16.884Z,18.90
2017-08-01T21:05:43.201Z,18.90
2017-08-01T21:08:09.501Z,18.80
2017-08-01T21:10:35.852Z,18.90
2017-08-01T21:13:02.155Z,18.80
2017-08-01T21:15:28.519Z,18.70
2017-08-01T21:17:54.899Z,18.60
2017-08-01T21:20:21.201Z,18.70
2017-08-01T21:22:47.506Z,18.90
2017-08-01T21:25:13.835Z,19.00
2017-08-01T21:27:40.173Z,19.00
2017-08-01T21:30:06.475Z,19.10
2017-08-01T21:32:32.799Z,19.00
2017-08-01T21:34:59.199Z,19.20
2017-08-01T21:37:25.497Z,19.30
2017-08-01T21:39:51.829Z,19.50
2017-08-01T21:42:18.166Z,19.60
2017-08-01T21:44:44.465Z,19.60
2017-08-01T21:47:10.770Z,19.70
2017-08-01T21:49:37.083Z,19.80
2017-08-01T21:52:04.103Z,19.90
2017-08-01T21:54:30.424Z,19.90
2017-08-01T21:56:56.735Z,19.50
2017-08-01T21:59:23.028Z,19.20
2017-08-01T22:01:49.436Z,19.30
2017-08-01T22:04:16.494Z,19.70
2017-08-01T22:06:42.791Z,19.70
2017-08-01T22:09:09.935Z,19.90
2017-08-01T22:11:36.233Z,19.90
2017-08-01T22:14:02.575Z,20.00
2017-08-01T22:16:28.912Z,20.00
2017-08-01T22:18:55.339Z,19.90
2017-08-01T22:21:21.651Z,19.80
2017-08-01T22:23:47.978Z,19.60
2017-08-01T22:26:14.319Z,19.60
2017-08-01T22:28:40.627Z,19.60
2017-08-01T22:31:07.004Z,19.50
2017-08-01T22:33:33.413Z,19.50
2017-08-01T22:35:59.748Z,19.30
2017-08-01T22:38:26.052Z,19.00
2017-08-01T22:40:52.343Z,19.20
2017-08-01T22:43:18.677Z,19.40
2017-08-01T22:45:45.709Z,19.10
2017-08-01T22:48:12.048Z,19.00
2017-08-01T22:50:39.122Z,18.90
2017-08-01T22:53:06.199Z,18.60
2017-08-01T22:55:32.483Z,18.60
2017-08-01T22:57:59.582Z,18.30
2017-08-01T23:00:25.979Z,18.20
2017-08-01T23:02:52.296Z,18.20
2017-08-01T23:05:19.334Z,18.20
2017-08-01T23:07:46.415Z,18.10
2017-08-01T23:10:12.745Z,18.10
2017-08-01T23:12:39.064Z,18.00
2017-08-01T23:15:06.416Z,18.00
2017-08-01T23:17:32.747Z,18.00
2017-08-01T23:19:59.084Z,18.00
2017-08-01T23:22:25.427Z,18.00
2017-08-01T23:24:51.811Z,18.10
2017-08-01T23:27:18.869Z,18.40
2017-08-01T23:29:45.173Z,18.30
2017-08-01T23:32:11.541Z,18.50
2017-08-01T23:34:37.848Z,18.60
2017-08-01T23:37:04.175Z,18.70
2017-08-01T23:39:30.535Z,18.80
2017-08-01T23:41:57.060Z,18.80
2017-08-01T23:44:24.104Z,18.80
2017-08-01T23:46:51.143Z,18.70
2017-08-01T23:49:18.224Z,18.70
2017-08-01T23:51:44.535Z,18.70
2017-08-01T23:54:10.893Z,18.70
2017-08-01T23:56:38.127Z,18.50
2017-08-01T23:59:04.437Z,18.30
